sensor_id;sensor_type;location;lat;lon;timestamp;temperature;humidity
34815;DHT22;21030;53.912;15.214;2023-02-28T00:01:33;29.50;18.50
34815;DHT22;21030;53.912;15.214;2023-02-28T00:04:01;29.20;18.60
34815;DHT22;21030;53.912;15.214;2023-02-28T00:06:28;29.20;18.60
34815;DHT22;21030;53.912;15.214;2023-02-28T00:08:56;29.40;18.70
34815;DHT22;21030;53.912;15.214;2023-02-28T00:11:23;29.40;18.60
34815;DHT22;21030;53.912;15.214;2023-02-28T00:13:50;29.40;18.60
34815;DHT22;21030;53.912;15.214;2023-02-28T00:16:21;29.50;18.60
34815;DHT22;21030;53.912;15.214;2023-02-28T00:18:49;29.60;18.60
34815;DHT22;21030;53.912;15.214;2023-02-28T00:21:17;29.60;18.70
34815;DHT22;21030;53.912;15.214;2023-02-28T00:23:44;29.70;18.30
34815;DHT22;21030;53.912;15.214;2023-02-28T00:26:12;29.80;18.70
34815;DHT22;21030;53.912;15.214;2023-02-28T00:28:39;29.80;17.80
34815;DHT22;21030;53.912;15.214;2023-02-28T00:31:06;29.80;17.70
34815;DHT22;21030;53.912;15.214;2023-02-28T00:33:33;29.90;17.50
34815;DHT22;21030;53.912;15.214;2023-02-28T00:36:05;29.90;17.70
34815;DHT22;21030;53.912;15.214;2023-02-28T00:38:33;30.00;17.80
34815;DHT22;21030;53.912;15.214;2023-02-28T00:41:00;30.00;17.60
34815;DHT22;21030;53.912;15.214;2023-02-28T00:43:36;30.00;17.70
34815;DHT22;21030;53.912;15.214;2023-02-28T00:46:04;30.00;17.60
34815;DHT22;21030;53.912;15.214;2023-02-28T00:48:31;30.00;17.70
34815;DHT22;21030;53.912;15.214;2023-02-28T00:50:59;30.00;17.60
34815;DHT22;21030;53.912;15.214;2023-02-28T00:53:26;30.00;17.60
34815;DHT22;21030;53.912;15.214;2023-02-28T00:55:53;30.00;17.50
34815;DHT22;21030;53.912;15.214;2023-02-28T00:58:20;30.00;17.70
34815;DHT22;21030;53.912;15.214;2023-02-28T01:00:47;30.00;17.70
34815;DHT22;21030;53.912;15.214;2023-02-28T01:03:20;29.90;17.70
34815;DHT22;21030;53.912;15.214;2023-02-28T01:05:47;29.90;17.40
34815;DHT22;21030;53.912;15.214;2023-02-28T01:08:14;29.80;17.40
34815;DHT22;21030;53.912;15.214;2023-02-28T01:10:42;29.80;17.40
34815;DHT22;21030;53.912;15.214;2023-02-28T01:13:09;29.70;17.50
34815;DHT22;21030;53.912;15.214;2023-02-28T01:15:37;29.70;17.60
34815;DHT22;21030;53.912;15.214;2023-02-28T01:18:04;29.70;17.70
34815;DHT22;21030;53.912;15.214;2023-02-28T01:20:32;29.80;17.70
34815;DHT22;21030;53.912;15.214;2023-02-28T01:22:59;29.80;17.80
34815;DHT22;21030;53.912;15.214;2023-02-28T01:25:26;29.80;17.50
34815;DHT22;21030;53.912;15.214;2023-02-28T01:27:53;29.70;17.50
34815;DHT22;21030;53.912;15.214;2023-02-28T01:30:20;29.70;17.60
34815;DHT22;21030;53.912;15.214;2023-02-28T01:32:47;29.60;17.60
34815;DHT22;21030;53.912;15.214;2023-02-28T01:35:15;29.60;17.50
34815;DHT22;21030;53.912;15.214;2023-02-28T01:37:42;29.70;17.40
34815;DHT22;21030;53.912;15.214;2023-02-28T01:40:09;29.70;17.50
34815;DHT22;21030;53.912;15.214;2023-02-28T01:42:36;29.70;17.50
34815;DHT22;21030;53.912;15.214;2023-02-28T01:45:31;29.70;17.70
34815;DHT22;21030;53.912;15.214;2023-02-28T01:48:09;29.70;17.60
34815;DHT22;21030;53.912;15.214;2023-02-28T01:50:39;29.80;17.40
34815;DHT22;21030;53.912;15.214;2023-02-28T01:53:12;29.80;17.60
34815;DHT22;21030;53.912;15.214;2023-02-28T01:55:41;29.80;17.50
34815;DHT22;21030;53.912;15.214;2023-02-28T01:58:09;29.80;17.40
34815;DHT22;21030;53.912;15.214;2023-02-28T02:00:36;29.80;17.50
34815;DHT22;21030;53.912;15.214;2023-02-28T02:03:08;29.90;17.50
34815;DHT22;21030;53.912;15.214;2023-02-28T02:05:37;29.80;17.50
34815;DHT22;21030;53.912;15.214;2023-02-28T02:08:10;29.80;17.50
34815;DHT22;21030;53.912;15.214;2023-02-28T02:10:58;29.80;17.80
34815;DHT22;21030;53.912;15.214;2023-02-28T02:22:20;29.70;17.50
34815;DHT22;21030;53.912;15.214;2023-02-28T02:36:38;29.60;17.50
34815;DHT22;21030;53.912;15.214;2023-02-28T02:39:30;29.50;17.80
34815;DHT22;21030;53.912;15.214;2023-02-28T02:42:00;29.50;17.70
34815;DHT22;21030;53.912;15.214;2023-02-28T02:47:32;29.40;17.40
34815;DHT22;21030;53.912;15.214;2023-02-28T02:50:04;29.50;17.50
34815;DHT22;21030;53.912;15.214;2023-02-28T02:52:40;29.40;17.40
34815;DHT22;21030;53.912;15.214;2023-02-28T02:55:12;29.30;17.40
34815;DHT22;21030;53.912;15.214;2023-02-28T02:57:47;29.10;17.50
34815;DHT22;21030;53.912;15.214;2023-02-28T03:00:21;29.10;17.40
34815;DHT22;21030;53.912;15.214;2023-02-28T03:02:51;29.10;17.40
34815;DHT22;21030;53.912;15.214;2023-02-28T03:05:35;28.80;17.90
34815;DHT22;21030;53.912;15.214;2023-02-28T03:08:06;28.80;18.10
34815;DHT22;21030;53.912;15.214;2023-02-28T03:27:30;28.20;18.50
34815;DHT22;21030;53.912;15.214;2023-02-28T03:30:06;28.40;18.60
34815;DHT22;21030;53.912;15.214;2023-02-28T03:35:36;28.80;18.40
34815;DHT22;21030;53.912;15.214;2023-02-28T03:38:16;28.90;18.20
34815;DHT22;21030;53.912;15.214;2023-02-28T03:40:51;29.10;18.00
34815;DHT22;21030;53.912;15.214;2023-02-28T03:43:27;29.10;17.90
34815;DHT22;21030;53.912;15.214;2023-02-28T03:45:56;29.20;17.70
34815;DHT22;21030;53.912;15.214;2023-02-28T03:49:01;29.30;17.50
34815;DHT22;21030;53.912;15.214;2023-02-28T03:51:29;29.30;17.70
34815;DHT22;21030;53.912;15.214;2023-02-28T03:54:04;29.40;17.60
34815;DHT22;21030;53.912;15.214;2023-02-28T03:56:53;29.40;17.60
34815;DHT22;21030;53.912;15.214;2023-02-28T03:59:43;29.40;17.50
34815;DHT22;21030;53.912;15.214;2023-02-28T04:02:11;29.50;17.50
34815;DHT22;21030;53.912;15.214;2023-02-28T04:04:38;29.40;17.50
34815;DHT22;21030;53.912;15.214;2023-02-28T04:07:09;29.50;17.50
34815;DHT22;21030;53.912;15.214;2023-02-28T04:09:38;29.40;17.30
34815;DHT22;21030;53.912;15.214;2023-02-28T04:12:06;29.40;17.30
34815;DHT22;21030;53.912;15.214;2023-02-28T04:14:33;29.40;17.40
34815;DHT22;21030;53.912;15.214;2023-02-28T04:17:00;29.50;17.20
34815;DHT22;21030;53.912;15.214;2023-02-28T04:19:27;29.50;17.30
34815;DHT22;21030;53.912;15.214;2023-02-28T04:21:55;29.50;17.10
34815;DHT22;21030;53.912;15.214;2023-02-28T04:24:25;29.40;17.50
34815;DHT22;21030;53.912;15.214;2023-02-28T04:26:54;29.40;17.30
34815;DHT22;21030;53.912;15.214;2023-02-28T04:29:28;29.40;17.30
34815;DHT22;21030;53.912;15.214;2023-02-28T04:31:56;29.40;17.20
34815;DHT22;21030;53.912;15.214;2023-02-28T04:34:28;29.40;17.20
34815;DHT22;21030;53.912;15.214;2023-02-28T04:36:56;29.30;17.30
34815;DHT22;21030;53.912;15.214;2023-02-28T04:39:40;29.30;17.30
34815;DHT22;21030;53.912;15.214;2023-02-28T04:42:09;29.30;17.10
34815;DHT22;21030;53.912;15.214;2023-02-28T04:44:36;29.30;17.10
34815;DHT22;21030;53.912;15.214;2023-02-28T04:47:03;29.00;17.40
34815;DHT22;21030;53.912;15.214;2023-02-28T04:49:30;29.10;17.30
34815;DHT22;21030;53.912;15.214;2023-02-28T04:51:57;29.10;17.10
34815;DHT22;21030;53.912;15.214;2023-02-28T04:54:24;29.10;17.10
34815;DHT22;21030;53.912;15.214;2023-02-28T04:56:51;28.60;17.40
34815;DHT22;21030;53.912;15.214;2023-02-28T04:59:19;28.70;17.60
34815;DHT22;21030;53.912;15.214;2023-02-28T05:01:47;28.90;17.40
34815;DHT22;21030;53.912;15.214;2023-02-28T05:04:15;29.00;17.30
34815;DHT22;21030;53.912;15.214;2023-02-28T05:06:42;29.10;17.40
34815;DHT22;21030;53.912;15.214;2023-02-28T05:09:09;29.10;17.20
34815;DHT22;21030;53.912;15.214;2023-02-28T05:11:40;29.10;17.10
34815;DHT22;21030;53.912;15.214;2023-02-28T05:14:12;29.10;17.30
34815;DHT22;21030;53.912;15.214;2023-02-28T05:16:39;29.00;17.30
34815;DHT22;21030;53.912;15.214;2023-02-28T05:19:07;29.10;17.20
34815;DHT22;21030;53.912;15.214;2023-02-28T05:21:39;29.10;17.30
34815;DHT22;21030;53.912;15.214;2023-02-28T05:24:10;29.10;17.10
34815;DHT22;21030;53.912;15.214;2023-02-28T05:26:40;29.10;17.00
34815;DHT22;21030;53.912;15.214;2023-02-28T05:29:08;29.10;16.90
34815;DHT22;21030;53.912;15.214;2023-02-28T05:31:36;29.00;16.90
34815;DHT22;21030;53.912;15.214;2023-02-28T05:34:03;29.00;16.90
34815;DHT22;21030;53.912;15.214;2023-02-28T05:36:33;29.00;17.10
34815;DHT22;21030;53.912;15.214;2023-02-28T05:39:00;29.00;17.10
34815;DHT22;21030;53.912;15.214;2023-02-28T05:41:28;29.00;17.20
34815;DHT22;21030;53.912;15.214;2023-02-28T05:43:55;28.80;17.10
34815;DHT22;21030;53.912;15.214;2023-02-28T05:46:23;28.70;17.30
34815;DHT22;21030;53.912;15.214;2023-02-28T05:48:51;28.70;17.40
34815;DHT22;21030;53.912;15.214;2023-02-28T05:51:18;28.80;17.40
34815;DHT22;21030;53.912;15.214;2023-02-28T05:53:45;28.70;17.30
34815;DHT22;21030;53.912;15.214;2023-02-28T05:56:12;28.50;17.40
34815;DHT22;21030;53.912;15.214;2023-02-28T05:58:39;28.30;17.50
34815;DHT22;21030;53.912;15.214;2023-02-28T06:01:21;28.20;17.50
34815;DHT22;21030;53.912;15.214;2023-02-28T06:03:49;28.30;17.50
34815;DHT22;21030;53.912;15.214;2023-02-28T06:06:17;28.30;17.60
34815;DHT22;21030;53.912;15.214;2023-02-28T06:08:44;28.50;17.50
34815;DHT22;21030;53.912;15.214;2023-02-28T06:11:12;28.00;17.60
34815;DHT22;21030;53.912;15.214;2023-02-28T06:13:39;27.70;17.90
34815;DHT22;21030;53.912;15.214;2023-02-28T06:16:10;27.40;18.00
34815;DHT22;21030;53.912;15.214;2023-02-28T06:18:38;27.40;18.10
34815;DHT22;21030;53.912;15.214;2023-02-28T06:21:05;27.40;18.10
34815;DHT22;21030;53.912;15.214;2023-02-28T06:23:33;27.90;18.10
34815;DHT22;21030;53.912;15.214;2023-02-28T06:26:00;28.10;18.00
34815;DHT22;21030;53.912;15.214;2023-02-28T06:28:27;28.40;17.80
34815;DHT22;21030;53.912;15.214;2023-02-28T06:30:55;28.60;17.60
34815;DHT22;21030;53.912;15.214;2023-02-28T06:33:22;28.90;17.80
34815;DHT22;21030;53.912;15.214;2023-02-28T06:35:52;28.90;17.20
34815;DHT22;21030;53.912;15.214;2023-02-28T06:38:20;29.00;17.90
34815;DHT22;21030;53.912;15.214;2023-02-28T06:40:55;29.20;17.50
34815;DHT22;21030;53.912;15.214;2023-02-28T06:43:24;29.50;17.50
34815;DHT22;21030;53.912;15.214;2023-02-28T06:45:55;29.70;17.70
34815;DHT22;21030;53.912;15.214;2023-02-28T06:48:22;29.90;17.50
34815;DHT22;21030;53.912;15.214;2023-02-28T06:50:50;30.20;17.40
34815;DHT22;21030;53.912;15.214;2023-02-28T06:53:17;30.50;17.10
34815;DHT22;21030;53.912;15.214;2023-02-28T06:55:44;30.90;17.30
34815;DHT22;21030;53.912;15.214;2023-02-28T06:58:11;31.20;17.00
34815;DHT22;21030;53.912;15.214;2023-02-28T07:00:42;31.40;17.40
34815;DHT22;21030;53.912;15.214;2023-02-28T07:03:11;31.50;16.80
34815;DHT22;21030;53.912;15.214;2023-02-28T07:05:39;31.80;16.60
34815;DHT22;21030;53.912;15.214;2023-02-28T07:08:06;31.80;16.10
34815;DHT22;21030;53.912;15.214;2023-02-28T07:10:33;31.90;16.40
34815;DHT22;21030;53.912;15.214;2023-02-28T07:13:01;32.20;16.10
34815;DHT22;21030;53.912;15.214;2023-02-28T07:15:28;32.70;15.90
34815;DHT22;21030;53.912;15.214;2023-02-28T07:17:55;32.90;15.90
34815;DHT22;21030;53.912;15.214;2023-02-28T07:20:23;32.90;15.80
34815;DHT22;21030;53.912;15.214;2023-02-28T07:22:51;33.00;16.10
34815;DHT22;21030;53.912;15.214;2023-02-28T07:25:23;33.10;16.10
34815;DHT22;21030;53.912;15.214;2023-02-28T07:27:51;32.90;16.20
34815;DHT22;21030;53.912;15.214;2023-02-28T07:30:18;32.80;16.50
34815;DHT22;21030;53.912;15.214;2023-02-28T07:32:46;31.70;16.30
34815;DHT22;21030;53.912;15.214;2023-02-28T07:35:15;31.50;16.50
34815;DHT22;21030;53.912;15.214;2023-02-28T07:37:42;31.20;16.40
34815;DHT22;21030;53.912;15.214;2023-02-28T07:40:10;30.90;16.60
34815;DHT22;21030;53.912;15.214;2023-02-28T07:42:39;30.70;16.70
34815;DHT22;21030;53.912;15.214;2023-02-28T07:45:06;30.50;16.60
34815;DHT22;21030;53.912;15.214;2023-02-28T07:47:34;30.20;17.00
34815;DHT22;21030;53.912;15.214;2023-02-28T07:50:01;30.30;17.10
34815;DHT22;21030;53.912;15.214;2023-02-28T07:52:28;30.10;17.10
34815;DHT22;21030;53.912;15.214;2023-02-28T07:54:55;30.50;17.20
34815;DHT22;21030;53.912;15.214;2023-02-28T07:57:24;30.50;17.00
34815;DHT22;21030;53.912;15.214;2023-02-28T07:59:52;30.50;17.00
34815;DHT22;21030;53.912;15.214;2023-02-28T08:02:19;30.50;17.00
34815;DHT22;21030;53.912;15.214;2023-02-28T08:04:48;30.80;16.90
34815;DHT22;21030;53.912;15.214;2023-02-28T08:07:17;31.00;16.70
34815;DHT22;21030;53.912;15.214;2023-02-28T08:09:44;31.10;16.90
34815;DHT22;21030;53.912;15.214;2023-02-28T08:12:12;31.40;16.70
34815;DHT22;21030;53.912;15.214;2023-02-28T08:14:39;31.60;16.60
34815;DHT22;21030;53.912;15.214;2023-02-28T08:17:06;31.10;16.40
34815;DHT22;21030;53.912;15.214;2023-02-28T08:19:33;32.20;16.70
34815;DHT22;21030;53.912;15.214;2023-02-28T08:22:00;32.90;16.30
34815;DHT22;21030;53.912;15.214;2023-02-28T08:24:28;33.50;16.20
34815;DHT22;21030;53.912;15.214;2023-02-28T08:26:55;34.00;15.90
34815;DHT22;21030;53.912;15.214;2023-02-28T08:29:22;33.80;15.50
34815;DHT22;21030;53.912;15.214;2023-02-28T08:31:51;33.90;15.60
34815;DHT22;21030;53.912;15.214;2023-02-28T08:34:18;33.40;15.20
34815;DHT22;21030;53.912;15.214;2023-02-28T08:36:45;33.20;15.30
34815;DHT22;21030;53.912;15.214;2023-02-28T08:39:13;33.50;15.60
34815;DHT22;21030;53.912;15.214;2023-02-28T08:41:41;34.10;15.60
34815;DHT22;21030;53.912;15.214;2023-02-28T08:44:08;35.00;15.50
34815;DHT22;21030;53.912;15.214;2023-02-28T08:46:36;36.10;16.30
34815;DHT22;21030;53.912;15.214;2023-02-28T08:49:03;35.10;15.00
34815;DHT22;21030;53.912;15.214;2023-02-28T08:51:30;35.80;15.30
34815;DHT22;21030;53.912;15.214;2023-02-28T08:53:59;36.20;15.10
34815;DHT22;21030;53.912;15.214;2023-02-28T08:56:28;36.80;15.30
34815;DHT22;21030;53.912;15.214;2023-02-28T08:58:56;36.40;14.90
34815;DHT22;21030;53.912;15.214;2023-02-28T09:01:26;35.70;14.90
34815;DHT22;21030;53.912;15.214;2023-02-28T09:03:55;36.20;14.60
34815;DHT22;21030;53.912;15.214;2023-02-28T09:06:26;35.80;14.60
34815;DHT22;21030;53.912;15.214;2023-02-28T09:08:57;35.50;14.90
34815;DHT22;21030;53.912;15.214;2023-02-28T09:11:28;34.70;14.70
34815;DHT22;21030;53.912;15.214;2023-02-28T09:13:55;34.80;14.50
34815;DHT22;21030;53.912;15.214;2023-02-28T09:16:22;34.60;14.70
34815;DHT22;21030;53.912;15.214;2023-02-28T09:18:50;33.20;14.90
34815;DHT22;21030;53.912;15.214;2023-02-28T09:21:18;34.20;15.50
34815;DHT22;21030;53.912;15.214;2023-02-28T09:23:47;35.50;15.10
34815;DHT22;21030;53.912;15.214;2023-02-28T09:26:23;35.60;14.50
34815;DHT22;21030;53.912;15.214;2023-02-28T09:28:53;35.50;14.50
34815;DHT22;21030;53.912;15.214;2023-02-28T09:31:25;35.00;14.90
34815;DHT22;21030;53.912;15.214;2023-02-28T09:33:57;35.40;15.10
34815;DHT22;21030;53.912;15.214;2023-02-28T09:36:26;35.80;15.00
34815;DHT22;21030;53.912;15.214;2023-02-28T09:39:09;34.90;14.70
34815;DHT22;21030;53.912;15.214;2023-02-28T09:41:43;36.10;15.10
34815;DHT22;21030;53.912;15.214;2023-02-28T09:44:28;36.30;14.30
34815;DHT22;21030;53.912;15.214;2023-02-28T09:47:12;35.90;14.30
34815;DHT22;21030;53.912;15.214;2023-02-28T09:49:46;36.00;14.40
34815;DHT22;21030;53.912;15.214;2023-02-28T09:52:27;35.80;14.40
34815;DHT22;21030;53.912;15.214;2023-02-28T09:54:55;35.90;14.30
34815;DHT22;21030;53.912;15.214;2023-02-28T09:57:33;36.30;14.70
34815;DHT22;21030;53.912;15.214;2023-02-28T10:06:26;37.20;14.20
34815;DHT22;21030;53.912;15.214;2023-02-28T10:11:20;35.30;14.60
34815;DHT22;21030;53.912;15.214;2023-02-28T10:14:05;36.50;15.00
34815;DHT22;21030;53.912;15.214;2023-02-28T10:16:41;38.10;14.60
34815;DHT22;21030;53.912;15.214;2023-02-28T10:19:20;37.70;13.90
34815;DHT22;21030;53.912;15.214;2023-02-28T10:22:05;38.70;14.20
34815;DHT22;21030;53.912;15.214;2023-02-28T10:24:46;39.20;13.10
34815;DHT22;21030;53.912;15.214;2023-02-28T10:27:17;38.40;13.20
34815;DHT22;21030;53.912;15.214;2023-02-28T10:29:52;39.30;13.20
34815;DHT22;21030;53.912;15.214;2023-02-28T10:35:25;39.20;12.90
34815;DHT22;21030;53.912;15.214;2023-02-28T10:37:58;37.40;12.90
34815;DHT22;21030;53.912;15.214;2023-02-28T10:40:35;36.70;13.40
34815;DHT22;21030;53.912;15.214;2023-02-28T10:48:38;38.50;13.30
34815;DHT22;21030;53.912;15.214;2023-02-28T10:51:11;38.10;12.70
34815;DHT22;21030;53.912;15.214;2023-02-28T10:53:55;37.00;12.60
34815;DHT22;21030;53.912;15.214;2023-02-28T10:56:28;37.50;13.40
34815;DHT22;21030;53.912;15.214;2023-02-28T11:01:49;39.10;13.40
34815;DHT22;21030;53.912;15.214;2023-02-28T11:04:31;38.40;12.70
34815;DHT22;21030;53.912;15.214;2023-02-28T11:07:02;37.40;12.80
34815;DHT22;21030;53.912;15.214;2023-02-28T11:09:39;36.90;13.00
34815;DHT22;21030;53.912;15.214;2023-02-28T11:12:19;36.10;13.50
34815;DHT22;21030;53.912;15.214;2023-02-28T11:14:58;35.90;13.80
34815;DHT22;21030;53.912;15.214;2023-02-28T11:17:29;36.50;13.80
34815;DHT22;21030;53.912;15.214;2023-02-28T11:20:10;35.30;13.30
34815;DHT22;21030;53.912;15.214;2023-02-28T11:22:46;37.10;13.90
34815;DHT22;21030;53.912;15.214;2023-02-28T11:25:28;37.40;13.10
34815;DHT22;21030;53.912;15.214;2023-02-28T11:28:03;36.00;13.20
34815;DHT22;21030;53.912;15.214;2023-02-28T11:30:42;35.20;13.30
34815;DHT22;21030;53.912;15.214;2023-02-28T11:33:23;35.80;14.10
34815;DHT22;21030;53.912;15.214;2023-02-28T11:35:58;38.00;14.00
34815;DHT22;21030;53.912;15.214;2023-02-28T11:38:27;39.50;13.60
34815;DHT22;21030;53.912;15.214;2023-02-28T11:51:14;40.50;12.30
34815;DHT22;21030;53.912;15.214;2023-02-28T11:57:41;41.60;12.10
34815;DHT22;21030;53.912;15.214;2023-02-28T12:00:25;42.20;11.80
34815;DHT22;21030;53.912;15.214;2023-02-28T12:22:45;37.80;12.20
34815;DHT22;21030;53.912;15.214;2023-02-28T12:27:45;37.40;13.00
34815;DHT22;21030;53.912;15.214;2023-02-28T12:30:34;38.80;13.00
34815;DHT22;21030;53.912;15.214;2023-02-28T12:33:11;39.30;12.60
34815;DHT22;21030;53.912;15.214;2023-02-28T12:35:55;39.50;12.00
34815;DHT22;21030;53.912;15.214;2023-02-28T12:41:39;38.40;12.10
34815;DHT22;21030;53.912;15.214;2023-02-28T12:44:17;37.70;12.20
34815;DHT22;21030;53.912;15.214;2023-02-28T12:46:58;38.30;12.50
34815;DHT22;21030;53.912;15.214;2023-02-28T12:49:33;38.70;12.70
34815;DHT22;21030;53.912;15.214;2023-02-28T12:52:02;38.40;12.10
34815;DHT22;21030;53.912;15.214;2023-02-28T12:54:41;36.60;12.40
34815;DHT22;21030;53.912;15.214;2023-02-28T12:57:15;36.90;12.90
34815;DHT22;21030;53.912;15.214;2023-02-28T12:59:51;37.50;12.70
34815;DHT22;21030;53.912;15.214;2023-02-28T13:02:33;37.70;12.40
34815;DHT22;21030;53.912;15.214;2023-02-28T13:10:40;40.50;12.60
34815;DHT22;21030;53.912;15.214;2023-02-28T13:13:18;41.50;11.90
34815;DHT22;21030;53.912;15.214;2023-02-28T13:16:07;42.00;11.70
34815;DHT22;21030;53.912;15.214;2023-02-28T13:18:40;42.00;11.60
34815;DHT22;21030;53.912;15.214;2023-02-28T13:21:22;42.70;11.70
34815;DHT22;21030;53.912;15.214;2023-02-28T13:39:53;36.70;12.40
34815;DHT22;21030;53.912;15.214;2023-02-28T13:47:51;37.30;13.40
34815;DHT22;21030;53.912;15.214;2023-02-28T13:50:37;38.70;13.10
34815;DHT22;21030;53.912;15.214;2023-02-28T13:56:03;40.30;13.20
34815;DHT22;21030;53.912;15.214;2023-02-28T13:59:03;40.60;13.20
34815;DHT22;21030;53.912;15.214;2023-02-28T14:01:38;40.70;12.90
34815;DHT22;21030;53.912;15.214;2023-02-28T14:07:24;41.20;12.90
34815;DHT22;21030;53.912;15.214;2023-02-28T14:10:01;41.10;12.60
34815;DHT22;21030;53.912;15.214;2023-02-28T14:15:40;41.10;13.00
34815;DHT22;21030;53.912;15.214;2023-02-28T14:18:30;40.90;12.90
34815;DHT22;21030;53.912;15.214;2023-02-28T14:21:24;40.50;13.00
34815;DHT22;21030;53.912;15.214;2023-02-28T14:24:23;40.60;13.10
34815;DHT22;21030;53.912;15.214;2023-02-28T14:27:26;40.70;13.00
34815;DHT22;21030;53.912;15.214;2023-02-28T14:30:20;40.10;12.80
34815;DHT22;21030;53.912;15.214;2023-02-28T14:33:22;40.60;12.80
34815;DHT22;21030;53.912;15.214;2023-02-28T14:36:00;40.30;12.90
34815;DHT22;21030;53.912;15.214;2023-02-28T14:38:32;40.30;12.80
34815;DHT22;21030;53.912;15.214;2023-02-28T14:41:04;40.50;12.90
34815;DHT22;21030;53.912;15.214;2023-02-28T14:43:33;40.80;12.80
34815;DHT22;21030;53.912;15.214;2023-02-28T14:46:01;41.00;12.90
34815;DHT22;21030;53.912;15.214;2023-02-28T14:48:29;41.10;12.70
34815;DHT22;21030;53.912;15.214;2023-02-28T14:51:01;41.00;12.80
34815;DHT22;21030;53.912;15.214;2023-02-28T14:53:36;41.10;12.80
34815;DHT22;21030;53.912;15.214;2023-02-28T14:56:04;41.00;12.70
34815;DHT22;21030;53.912;15.214;2023-02-28T14:58:33;41.30;12.60
34815;DHT22;21030;53.912;15.214;2023-02-28T15:01:03;40.80;12.60
34815;DHT22;21030;53.912;15.214;2023-02-28T15:03:34;40.70;12.70
34815;DHT22;21030;53.912;15.214;2023-02-28T15:06:05;40.40;12.60
34815;DHT22;21030;53.912;15.214;2023-02-28T15:08:32;40.40;13.20
34815;DHT22;21030;53.912;15.214;2023-02-28T15:11:12;40.00;12.70
34815;DHT22;21030;53.912;15.214;2023-02-28T15:13:43;40.50;12.90
34815;DHT22;21030;53.912;15.214;2023-02-28T15:16:20;40.40;12.70
34815;DHT22;21030;53.912;15.214;2023-02-28T15:19:34;40.50;12.70
34815;DHT22;21030;53.912;15.214;2023-02-28T15:22:07;40.40;12.80
34815;DHT22;21030;53.912;15.214;2023-02-28T15:24:50;39.90;12.70
34815;DHT22;21030;53.912;15.214;2023-02-28T15:27:20;39.70;12.90
34815;DHT22;21030;53.912;15.214;2023-02-28T15:29:50;39.00;13.10
34815;DHT22;21030;53.912;15.214;2023-02-28T15:32:29;39.10;13.10
34815;DHT22;21030;53.912;15.214;2023-02-28T15:34:58;38.90;13.30
34815;DHT22;21030;53.912;15.214;2023-02-28T15:40:17;39.10;13.30
34815;DHT22;21030;53.912;15.214;2023-02-28T15:45:28;36.90;13.70
34815;DHT22;21030;53.912;15.214;2023-02-28T15:47:55;36.40;14.10
34815;DHT22;21030;53.912;15.214;2023-02-28T15:50:34;36.20;14.30
34815;DHT22;21030;53.912;15.214;2023-02-28T15:53:01;36.10;14.40
34815;DHT22;21030;53.912;15.214;2023-02-28T15:55:30;35.60;14.50
34815;DHT22;21030;53.912;15.214;2023-02-28T15:58:00;34.30;14.90
34815;DHT22;21030;53.912;15.214;2023-02-28T16:00:30;34.00;15.90
34815;DHT22;21030;53.912;15.214;2023-02-28T16:02:59;33.40;15.50
34815;DHT22;21030;53.912;15.214;2023-02-28T16:05:30;33.50;15.70
34815;DHT22;21030;53.912;15.214;2023-02-28T16:08:14;33.30;15.60
34815;DHT22;21030;53.912;15.214;2023-02-28T16:10:43;33.30;15.60
34815;DHT22;21030;53.912;15.214;2023-02-28T16:13:11;33.30;15.50
34815;DHT22;21030;53.912;15.214;2023-02-28T16:15:43;33.10;15.60
34815;DHT22;21030;53.912;15.214;2023-02-28T16:18:11;32.90;15.60
34815;DHT22;21030;53.912;15.214;2023-02-28T16:20:39;32.80;15.60
34815;DHT22;21030;53.912;15.214;2023-02-28T16:23:06;32.80;15.70
34815;DHT22;21030;53.912;15.214;2023-02-28T16:25:36;33.10;15.60
34815;DHT22;21030;53.912;15.214;2023-02-28T16:28:04;33.30;15.60
34815;DHT22;21030;53.912;15.214;2023-02-28T16:30:35;33.30;15.50
34815;DHT22;21030;53.912;15.214;2023-02-28T16:33:02;33.40;15.50
34815;DHT22;21030;53.912;15.214;2023-02-28T16:35:29;33.10;15.40
34815;DHT22;21030;53.912;15.214;2023-02-28T16:37:56;33.20;15.40
34815;DHT22;21030;53.912;15.214;2023-02-28T16:40:25;33.30;15.50
34815;DHT22;21030;53.912;15.214;2023-02-28T16:42:57;33.30;15.40
34815;DHT22;21030;53.912;15.214;2023-02-28T16:45:28;33.10;15.50
34815;DHT22;21030;53.912;15.214;2023-02-28T16:47:57;33.10;15.60
34815;DHT22;21030;53.912;15.214;2023-02-28T16:50:27;33.10;15.60
34815;DHT22;21030;53.912;15.214;2023-02-28T16:52:55;32.90;15.60
34815;DHT22;21030;53.912;15.214;2023-02-28T16:55:25;32.90;15.80
34815;DHT22;21030;53.912;15.214;2023-02-28T16:57:58;33.00;15.80
34815;DHT22;21030;53.912;15.214;2023-02-28T17:00:26;33.10;15.60
34815;DHT22;21030;53.912;15.214;2023-02-28T17:02:54;33.00;15.60
34815;DHT22;21030;53.912;15.214;2023-02-28T17:05:22;32.90;15.70
34815;DHT22;21030;53.912;15.214;2023-02-28T17:07:50;32.70;15.80
34815;DHT22;21030;53.912;15.214;2023-02-28T17:10:26;32.60;15.90
34815;DHT22;21030;53.912;15.214;2023-02-28T17:12:53;32.60;15.90
34815;DHT22;21030;53.912;15.214;2023-02-28T17:15:35;32.60;16.10
34815;DHT22;21030;53.912;15.214;2023-02-28T17:18:04;32.40;16.10
34815;DHT22;21030;53.912;15.214;2023-02-28T17:20:32;32.00;16.20
34815;DHT22;21030;53.912;15.214;2023-02-28T17:23:00;31.70;16.40
34815;DHT22;21030;53.912;15.214;2023-02-28T17:25:28;31.80;16.50
34815;DHT22;21030;53.912;15.214;2023-02-28T17:27:55;31.80;16.60
34815;DHT22;21030;53.912;15.214;2023-02-28T17:30:25;31.80;16.60
34815;DHT22;21030;53.912;15.214;2023-02-28T17:32:56;31.60;16.60
34815;DHT22;21030;53.912;15.214;2023-02-28T17:35:24;31.50;16.70
34815;DHT22;21030;53.912;15.214;2023-02-28T17:37:54;31.50;16.60
34815;DHT22;21030;53.912;15.214;2023-02-28T17:40:23;31.60;16.60
34815;DHT22;21030;53.912;15.214;2023-02-28T17:42:50;31.60;16.60
34815;DHT22;21030;53.912;15.214;2023-02-28T17:45:19;31.80;16.50
34815;DHT22;21030;53.912;15.214;2023-02-28T17:47:48;32.00;16.60
34815;DHT22;21030;53.912;15.214;2023-02-28T17:50:19;32.10;16.50
34815;DHT22;21030;53.912;15.214;2023-02-28T17:52:47;31.90;17.10
34815;DHT22;21030;53.912;15.214;2023-02-28T17:55:15;31.70;16.50
34815;DHT22;21030;53.912;15.214;2023-02-28T17:57:43;31.60;16.60
34815;DHT22;21030;53.912;15.214;2023-02-28T18:00:12;31.50;16.70
34815;DHT22;21030;53.912;15.214;2023-02-28T18:02:40;31.50;16.70
34815;DHT22;21030;53.912;15.214;2023-02-28T18:05:08;31.40;16.70
34815;DHT22;21030;53.912;15.214;2023-02-28T18:07:38;31.40;16.90